createdAt,value
2023-02-20T00:00:16.727Z,0.00
2023-02-20T00:01:16.735Z,0.00
2023-02-20T00:02:16.782Z,0.00
2023-02-20T00:03:16.772Z,0.00
2023-02-20T00:04:16.754Z,0.00
2023-02-20T00:05:16.761Z,0.00
2023-02-20T00:06:16.773Z,0.00
2023-02-20T00:07:16.781Z,0.00
2023-02-20T00:08:16.782Z,0.00
2023-02-20T00:09:16.788Z,0.00
2023-02-20T00:10:16.796Z,0.00
2023-02-20T00:11:16.804Z,0.00
2023-02-20T00:12:16.811Z,0.00
2023-02-20T00:13:16.821Z,0.00
2023-02-20T00:14:16.824Z,0.00
2023-02-20T00:15:16.836Z,0.00
2023-02-20T00:16:16.849Z,0.00
2023-02-20T00:17:16.846Z,0.00
2023-02-20T00:18:16.855Z,0.00
2023-02-20T00:19:16.861Z,0.00
2023-02-20T00:20:16.871Z,0.00
2023-02-20T00:21:16.880Z,0.00
2023-02-20T00:22:16.884Z,0.00
2023-02-20T00:23:16.889Z,0.00
2023-02-20T00:24:16.957Z,0.00
2023-02-20T00:25:17.141Z,0.00
2023-02-20T00:26:17.094Z,0.00
2023-02-20T00:27:17.172Z,0.00
2023-02-20T00:28:16.932Z,0.00
2023-02-20T00:29:16.937Z,0.00
2023-02-20T00:30:16.970Z,0.00
2023-02-20T00:31:16.994Z,0.00
2023-02-20T00:32:16.997Z,0.00
2023-02-20T00:33:16.964Z,0.00
2023-02-20T00:34:16.972Z,0.00
2023-02-20T00:35:16.979Z,0.00
2023-02-20T00:36:16.985Z,0.00
2023-02-20T00:37:16.993Z,0.00
2023-02-20T00:38:17.005Z,0.00
2023-02-20T00:39:17.009Z,0.00
2023-02-20T00:40:17.027Z,0.00
2023-02-20T00:41:17.025Z,0.00
2023-02-20T00:42:17.028Z,0.00
2023-02-20T00:43:17.040Z,0.00
2023-02-20T00:44:17.054Z,0.00
2023-02-20T00:45:17.066Z,0.00
2023-02-20T00:46:17.206Z,0.00
2023-02-20T00:47:17.064Z,0.00
2023-02-20T00:48:17.073Z,0.00
2023-02-20T00:49:17.083Z,0.00
2023-02-20T00:50:17.094Z,0.00
2023-02-20T00:51:17.108Z,0.00
2023-02-20T00:52:17.114Z,0.00
2023-02-20T00:53:17.108Z,0.00
2023-02-20T00:54:17.120Z,0.00
2023-02-20T00:55:17.128Z,0.00
2023-02-20T00:56:17.131Z,0.00
2023-02-20T00:57:17.139Z,0.00
2023-02-20T00:58:17.146Z,0.00
2023-02-20T00:59:17.157Z,0.00
2023-02-20T01:00:17.162Z,0.00
2023-02-20T01:01:17.193Z,0.00
2023-02-20T01:02:17.175Z,0.00
2023-02-20T01:03:17.185Z,0.00
2023-02-20T01:04:17.189Z,0.00
2023-02-20T01:05:17.197Z,0.00
2023-02-20T01:06:17.212Z,0.00
2023-02-20T01:07:17.210Z,0.00
2023-02-20T01:08:17.216Z,0.00
2023-02-20T01:09:17.226Z,0.00
2023-02-20T01:10:17.231Z,0.00
2023-02-20T01:11:17.236Z,0.00
2023-02-20T01:12:17.271Z,0.00
2023-02-20T01:13:17.252Z,0.00
2023-02-20T01:14:17.263Z,0.00
2023-02-20T01:15:17.266Z,0.00
2023-02-20T01:16:17.349Z,0.00
2023-02-20T01:17:17.282Z,0.00
2023-02-20T01:18:17.288Z,0.00
2023-02-20T01:19:17.296Z,0.00
2023-02-20T01:20:17.310Z,0.00
2023-02-20T01:21:17.313Z,0.00
2023-02-20T01:22:17.318Z,0.00
2023-02-20T01:23:17.324Z,0.00
2023-02-20T01:24:17.342Z,0.00
2023-02-20T01:25:17.338Z,0.00
2023-02-20T01:26:17.345Z,0.00
2023-02-20T01:27:17.354Z,0.00
2023-02-20T01:28:17.359Z,0.00
2023-02-20T01:29:17.377Z,0.00
2023-02-20T01:30:17.396Z,0.00
2023-02-20T01:31:17.481Z,0.00
2023-02-20T01:32:17.392Z,0.00
2023-02-20T01:33:17.399Z,0.00
2023-02-20T01:34:17.406Z,0.00
2023-02-20T01:35:17.414Z,0.00
2023-02-20T01:36:17.424Z,0.00
2023-02-20T01:37:17.436Z,0.00
2023-02-20T01:38:17.454Z,0.00
2023-02-20T01:39:17.451Z,0.00
2023-02-20T01:40:17.459Z,0.00
2023-02-20T01:41:17.463Z,0.00
2023-02-20T01:42:17.469Z,0.00
2023-02-20T01:43:17.478Z,0.00
2023-02-20T01:44:17.486Z,0.00
2023-02-20T01:45:17.496Z,0.00
2023-02-20T01:46:17.527Z,0.00
2023-02-20T01:47:17.510Z,0.00
2023-02-20T01:48:17.519Z,0.00
2023-02-20T01:49:17.526Z,0.00
2023-02-20T01:50:17.533Z,0.00
2023-02-20T01:51:17.540Z,0.00
2023-02-20T01:52:17.552Z,0.00
2023-02-20T01:53:17.563Z,0.00
2023-02-20T01:54:17.568Z,0.00
2023-02-20T01:55:17.577Z,0.00
2023-02-20T01:56:17.583Z,0.00
2023-02-20T01:57:17.590Z,0.00
2023-02-20T01:58:17.633Z,0.00
2023-02-20T01:59:17.614Z,0.00
2023-02-20T02:00:17.614Z,0.00
2023-02-20T02:01:17.643Z,0.00
2023-02-20T02:02:17.662Z,0.00
2023-02-20T02:03:17.635Z,0.00
2023-02-20T02:04:17.649Z,0.00
2023-02-20T02:05:17.654Z,0.00
2023-02-20T02:06:17.663Z,0.00
2023-02-20T02:07:17.694Z,0.00
2023-02-20T02:08:17.678Z,0.00
2023-02-20T02:09:17.687Z,0.00
2023-02-20T02:10:17.698Z,0.00
2023-02-20T02:11:17.702Z,0.00
2023-02-20T02:12:17.713Z,0.00
2023-02-20T02:13:17.718Z,0.00
2023-02-20T02:14:17.721Z,0.00
2023-02-20T02:15:17.742Z,0.00
2023-02-20T02:16:17.762Z,0.00
2023-02-20T02:17:17.749Z,0.00
2023-02-20T02:18:17.754Z,0.00
2023-02-20T02:19:17.762Z,0.00
2023-02-20T02:20:17.772Z,0.00
2023-02-20T02:21:17.776Z,0.00
2023-02-20T02:22:17.784Z,0.00
2023-02-20T02:23:17.792Z,0.00
2023-02-20T02:24:17.799Z,0.00
2023-02-20T02:25:17.815Z,0.00
2023-02-20T02:26:17.813Z,0.00
2023-02-20T02:27:17.828Z,0.00
2023-02-20T02:28:17.832Z,0.00
2023-02-20T02:29:17.839Z,0.00
2023-02-20T02:30:17.878Z,0.00
2023-02-20T02:31:17.920Z,0.00
2023-02-20T02:32:17.863Z,0.00
2023-02-20T02:33:17.873Z,0.00
2023-02-20T02:34:17.884Z,0.00
2023-02-20T02:35:17.916Z,0.00
2023-02-20T02:36:17.897Z,0.00
2023-02-20T02:37:17.905Z,0.00
2023-02-20T02:38:17.910Z,0.00
2023-02-20T02:39:17.921Z,0.00
2023-02-20T02:40:17.927Z,0.00
2023-02-20T02:41:17.938Z,0.00
2023-02-20T02:42:17.946Z,0.00
2023-02-20T02:43:17.952Z,0.00
2023-02-20T02:44:17.973Z,0.00
2023-02-20T02:45:17.976Z,0.00
2023-02-20T02:46:17.979Z,0.00
2023-02-20T02:47:17.987Z,0.00
2023-02-20T02:48:17.998Z,0.00
2023-02-20T02:49:18.005Z,0.00
2023-02-20T02:50:18.016Z,0.00
2023-02-20T02:51:18.025Z,0.00
2023-02-20T02:52:18.032Z,0.00
2023-02-20T02:53:18.043Z,0.00
2023-02-20T02:54:18.048Z,0.00
2023-02-20T02:55:18.057Z,0.00
2023-02-20T02:56:18.097Z,0.00
2023-02-20T02:57:18.089Z,0.00
2023-02-20T02:58:18.134Z,0.00
2023-02-20T02:59:18.089Z,0.00
2023-02-20T03:00:18.105Z,0.00
2023-02-20T03:01:18.163Z,0.00
2023-02-20T03:02:18.158Z,0.00
2023-02-20T03:03:18.126Z,0.00
2023-02-20T03:04:18.138Z,0.00
2023-02-20T03:05:18.145Z,0.00
2023-02-20T03:06:18.153Z,0.00
2023-02-20T03:07:18.164Z,0.00
2023-02-20T03:08:18.172Z,0.00
2023-02-20T03:09:18.183Z,0.00
2023-02-20T03:10:18.202Z,0.00
2023-02-20T03:11:18.197Z,0.00
2023-02-20T03:12:18.208Z,0.00
2023-02-20T03:13:18.221Z,0.00
2023-02-20T03:14:18.232Z,0.00
2023-02-20T03:15:18.248Z,0.00
2023-02-20T03:16:18.310Z,0.00
2023-02-20T03:17:18.252Z,0.00
2023-02-20T03:18:18.259Z,0.00
2023-02-20T03:19:18.269Z,0.00
2023-02-20T03:20:18.280Z,0.00
2023-02-20T03:21:18.292Z,0.00
2023-02-20T03:22:18.300Z,0.00
2023-02-20T03:23:18.309Z,0.00
2023-02-20T03:24:18.319Z,0.00
2023-02-20T03:25:18.330Z,0.00
2023-02-20T03:26:18.995Z,0.00
2023-02-20T03:27:18.352Z,0.00
2023-02-20T03:28:18.377Z,0.00
2023-02-20T03:29:18.366Z,0.00
2023-02-20T03:30:18.403Z,0.00
2023-02-20T03:31:18.458Z,0.00
2023-02-20T03:32:18.430Z,0.00
2023-02-20T03:33:18.408Z,0.00
2023-02-20T03:34:18.415Z,0.00
2023-02-20T03:35:18.425Z,0.00
2023-02-20T03:36:18.432Z,0.00
2023-02-20T03:37:18.450Z,0.00
2023-02-20T03:38:18.453Z,0.00
2023-02-20T03:39:18.462Z,0.00
2023-02-20T03:40:18.473Z,0.00
2023-02-20T03:41:18.480Z,0.00
2023-02-20T03:42:18.489Z,0.00
2023-02-20T03:43:18.498Z,0.00
2023-02-20T03:44:18.523Z,0.00
2023-02-20T03:45:18.518Z,0.00
2023-02-20T03:46:18.588Z,0.00
2023-02-20T03:47:18.536Z,0.00
2023-02-20T03:48:18.546Z,0.00
2023-02-20T03:49:18.557Z,0.00
2023-02-20T03:50:18.568Z,0.00
2023-02-20T03:51:18.578Z,0.00
2023-02-20T03:52:18.584Z,0.00
2023-02-20T03:53:18.601Z,0.00
2023-02-20T03:54:18.607Z,0.00
2023-02-20T03:55:18.615Z,0.00
2023-02-20T03:56:18.621Z,0.00
2023-02-20T03:57:18.631Z,0.00
2023-02-20T03:58:18.640Z,0.00
2023-02-20T03:59:18.672Z,0.00
2023-02-20T04:00:18.671Z,0.00
2023-02-20T04:01:18.720Z,0.00
2023-02-20T04:02:18.759Z,0.00
2023-02-20T04:03:18.693Z,0.00
2023-02-20T04:04:18.706Z,0.00
2023-02-20T04:05:18.710Z,0.00
2023-02-20T04:06:18.720Z,0.00
2023-02-20T04:07:18.728Z,0.00
2023-02-20T04:08:18.752Z,0.00
2023-02-20T04:09:18.749Z,0.00
2023-02-20T04:10:18.758Z,0.00
2023-02-20T04:11:18.767Z,0.00
2023-02-20T04:12:18.775Z,0.00
2023-02-20T04:13:18.787Z,0.00
2023-02-20T04:14:18.805Z,0.00
2023-02-20T04:15:18.805Z,0.00
2023-02-20T04:16:18.884Z,0.00
2023-02-20T04:17:18.824Z,0.00
2023-02-20T04:18:18.833Z,0.00
2023-02-20T04:19:18.852Z,0.00
2023-02-20T04:20:18.857Z,0.00
2023-02-20T04:21:18.869Z,0.00
2023-02-20T04:22:18.928Z,0.00
2023-02-20T04:23:18.885Z,0.00
2023-02-20T04:24:18.893Z,0.00
2023-02-20T04:25:18.904Z,0.00
2023-02-20T04:26:18.920Z,0.00
2023-02-20T04:27:18.922Z,0.00
2023-02-20T04:28:18.931Z,0.00
2023-02-20T04:29:18.948Z,0.00
2023-02-20T04:30:19.001Z,0.00
2023-02-20T04:31:19.046Z,0.00
2023-02-20T04:32:18.969Z,0.00
2023-02-20T04:33:18.982Z,0.00
2023-02-20T04:34:18.992Z,0.00
2023-02-20T04:35:18.999Z,0.00
2023-02-20T04:36:19.011Z,0.00
2023-02-20T04:37:19.027Z,0.00
2023-02-20T04:38:19.024Z,0.00
2023-02-20T04:39:19.040Z,0.00
2023-02-20T04:40:19.045Z,0.00
2023-02-20T04:41:19.054Z,0.00
2023-02-20T04:42:19.064Z,0.00
2023-02-20T04:43:19.073Z,0.00
2023-02-20T04:44:19.084Z,0.00
2023-02-20T04:45:19.094Z,0.00
2023-02-20T04:46:19.141Z,0.00
2023-02-20T04:47:19.122Z,0.00
2023-02-20T04:48:19.130Z,0.00
2023-02-20T04:49:19.143Z,0.00
2023-02-20T04:50:19.144Z,0.00
2023-02-20T04:51:19.154Z,0.00
2023-02-20T04:52:19.161Z,0.00
2023-02-20T04:53:19.173Z,0.00
2023-02-20T04:54:19.185Z,0.00
2023-02-20T04:55:19.194Z,0.00
2023-02-20T04:56:19.207Z,0.00
2023-02-20T04:57:19.215Z,0.00
2023-02-20T04:58:19.224Z,0.00
2023-02-20T04:59:19.242Z,0.00
2023-02-20T05:00:19.262Z,0.00
2023-02-20T05:01:19.284Z,0.00
2023-02-20T05:02:19.268Z,0.00
2023-02-20T05:03:19.278Z,0.00
2023-02-20T05:04:19.306Z,0.00
2023-02-20T05:05:19.303Z,0.00
2023-02-20T05:06:19.311Z,0.00
2023-02-20T05:07:19.319Z,0.00
2023-02-20T05:08:19.328Z,0.00
2023-02-20T05:09:19.339Z,0.00
2023-02-20T05:10:19.350Z,0.00
2023-02-20T05:11:19.359Z,0.00
2023-02-20T05:12:19.373Z,0.00
2023-02-20T05:13:19.377Z,0.00
2023-02-20T05:14:19.387Z,0.00
2023-02-20T05:15:19.399Z,0.00
2023-02-20T05:16:19.433Z,0.00
2023-02-20T05:17:19.418Z,0.00
2023-02-20T05:18:19.432Z,0.00
2023-02-20T05:19:19.440Z,0.00
2023-02-20T05:20:19.452Z,0.00
2023-02-20T05:21:19.459Z,0.00
2023-02-20T05:22:19.482Z,0.00
2023-02-20T05:23:19.479Z,0.00
2023-02-20T05:24:19.491Z,0.00
2023-02-20T05:25:19.499Z,0.00
2023-02-20T05:26:19.510Z,0.00
2023-02-20T05:27:19.520Z,0.00
2023-02-20T05:28:19.532Z,0.00
2023-02-20T05:29:19.541Z,0.00
2023-02-20T05:30:19.594Z,0.00
2023-02-20T05:31:19.702Z,0.00
2023-02-20T05:32:19.569Z,0.00
2023-02-20T05:33:19.583Z,0.00
2023-02-20T05:34:19.590Z,0.00
2023-02-20T05:35:19.601Z,0.00
2023-02-20T05:36:19.611Z,0.00
2023-02-20T05:37:19.629Z,0.00
2023-02-20T05:38:19.630Z,0.00
2023-02-20T05:39:19.641Z,0.00
2023-02-20T05:40:19.650Z,0.00
2023-02-20T05:41:19.664Z,0.00
2023-02-20T05:42:19.675Z,0.00
2023-02-20T05:43:19.684Z,0.00
2023-02-20T05:44:19.693Z,0.00
2023-02-20T05:45:19.706Z,0.00
2023-02-20T05:46:19.725Z,0.00
2023-02-20T05:47:19.725Z,0.00
2023-02-20T05:48:19.735Z,0.00
2023-02-20T05:49:19.745Z,0.00
2023-02-20T05:50:19.753Z,0.00
2023-02-20T05:51:19.762Z,0.00
2023-02-20T05:52:19.776Z,0.00
2023-02-20T05:53:19.783Z,0.00
2023-02-20T05:54:19.792Z,0.00
2023-02-20T05:55:19.806Z,0.00
2023-02-20T05:56:19.816Z,0.00
2023-02-20T05:57:19.824Z,0.00
2023-02-20T05:58:19.836Z,0.00
2023-02-20T05:59:19.845Z,0.00
2023-02-20T06:00:19.854Z,0.00
2023-02-20T06:01:19.869Z,0.00
2023-02-20T06:02:19.873Z,0.00
2023-02-20T06:03:19.890Z,0.00
2023-02-20T06:04:20.000Z,0.00
2023-02-20T06:05:19.908Z,0.00
2023-02-20T06:06:19.915Z,0.00
2023-02-20T06:07:19.933Z,0.00
2023-02-20T06:08:19.935Z,0.00
2023-02-20T06:09:19.947Z,0.00
2023-02-20T06:10:19.959Z,0.00
2023-02-20T06:11:19.972Z,0.00
2023-02-20T06:12:19.976Z,0.00
2023-02-20T06:13:19.983Z,0.00
2023-02-20T06:14:19.996Z,0.00
2023-02-20T06:15:20.005Z,0.00
2023-02-20T06:16:20.059Z,0.00
2023-02-20T06:17:20.023Z,0.00
2023-02-20T06:18:20.032Z,0.00
2023-02-20T06:19:20.121Z,5.63
2023-02-20T06:20:20.053Z,5.63
2023-02-20T06:21:20.064Z,5.63
2023-02-20T06:22:20.073Z,5.63
2023-02-20T06:23:20.087Z,5.63
2023-02-20T06:24:20.094Z,11.25
2023-02-20T06:25:20.106Z,11.25
2023-02-20T06:26:20.134Z,11.25
2023-02-20T06:27:20.123Z,11.25
2023-02-20T06:28:20.135Z,11.25
2023-02-20T06:29:20.166Z,11.25
2023-02-20T06:30:20.220Z,11.25
2023-02-20T06:31:20.219Z,11.25
2023-02-20T06:32:20.216Z,16.88
2023-02-20T06:33:20.188Z,16.88
2023-02-20T06:34:20.221Z,16.88
2023-02-20T06:35:20.207Z,16.88
2023-02-20T06:36:20.226Z,16.88
2023-02-20T06:37:20.231Z,16.88
2023-02-20T06:38:20.240Z,16.88
2023-02-20T06:39:20.261Z,16.88
2023-02-20T06:40:20.274Z,16.88
2023-02-20T06:41:20.271Z,16.88
2023-02-20T06:42:20.281Z,16.88
2023-02-20T06:43:20.290Z,16.88
2023-02-20T06:44:20.300Z,16.88
2023-02-20T06:45:20.315Z,22.50
2023-02-20T06:46:20.372Z,28.13
2023-02-20T06:47:20.332Z,28.13
2023-02-20T06:48:20.372Z,28.13
2023-02-20T06:49:20.370Z,28.13
2023-02-20T06:50:20.364Z,28.13
2023-02-20T06:51:20.380Z,33.75
2023-02-20T06:52:20.390Z,39.38
2023-02-20T06:53:20.405Z,50.63
2023-02-20T06:54:20.406Z,67.50
2023-02-20T06:55:20.417Z,78.75
2023-02-20T06:56:20.425Z,84.38
2023-02-20T06:57:20.436Z,84.38
2023-02-20T06:58:20.453Z,84.38
2023-02-20T06:59:20.464Z,84.38
2023-02-20T07:00:20.469Z,90.00
2023-02-20T07:01:20.478Z,95.63
2023-02-20T07:02:20.499Z,90.00
2023-02-20T07:03:20.499Z,90.00
2023-02-20T07:04:20.522Z,95.63
2023-02-20T07:05:20.526Z,95.63
2023-02-20T07:06:20.529Z,101.25
2023-02-20T07:07:20.547Z,101.25
2023-02-20T07:08:20.548Z,106.88
2023-02-20T07:09:20.558Z,106.88
2023-02-20T07:10:20.612Z,112.50
2023-02-20T07:11:20.611Z,112.50
2023-02-20T07:12:20.603Z,118.13
2023-02-20T07:13:20.604Z,118.13
2023-02-20T07:14:20.617Z,118.13
2023-02-20T07:15:20.625Z,118.13
2023-02-20T07:16:20.782Z,123.75
2023-02-20T07:17:20.644Z,129.38
2023-02-20T07:18:20.652Z,129.38
2023-02-20T07:19:20.661Z,129.38
2023-02-20T07:20:20.675Z,135.00
2023-02-20T07:21:20.687Z,135.00
2023-02-20T07:22:20.695Z,135.00
2023-02-20T07:23:20.709Z,135.00
2023-02-20T07:24:20.718Z,135.00
2023-02-20T07:25:20.727Z,140.63
2023-02-20T07:26:20.743Z,140.63
2023-02-20T07:27:20.751Z,146.25
2023-02-20T07:28:20.759Z,140.63
2023-02-20T07:29:20.771Z,140.63
2023-02-20T07:30:20.822Z,135.00
2023-02-20T07:31:20.827Z,135.00
2023-02-20T07:32:20.866Z,135.00
2023-02-20T07:33:20.810Z,140.63
2023-02-20T07:34:20.826Z,146.25
2023-02-20T07:35:20.833Z,157.50
2023-02-20T07:36:20.851Z,157.50
2023-02-20T07:37:20.856Z,157.50
2023-02-20T07:38:20.866Z,157.50
2023-02-20T07:39:20.876Z,151.88
2023-02-20T07:40:20.888Z,146.25
2023-02-20T07:41:20.905Z,140.63
2023-02-20T07:42:20.909Z,140.63
2023-02-20T07:43:20.920Z,140.63
2023-02-20T07:44:20.931Z,140.63
2023-02-20T07:45:20.945Z,140.63
2023-02-20T07:46:21.076Z,140.63
2023-02-20T07:47:20.964Z,146.25
2023-02-20T07:48:20.975Z,146.25
2023-02-20T07:49:20.990Z,151.88
2023-02-20T07:50:20.996Z,157.50
2023-02-20T07:51:21.014Z,157.50
2023-02-20T07:52:21.032Z,157.50
2023-02-20T07:53:21.037Z,151.88
2023-02-20T07:54:21.045Z,146.25
2023-02-20T07:55:21.071Z,146.25
2023-02-20T07:56:21.065Z,146.25
2023-02-20T07:57:21.077Z,146.25
2023-02-20T07:58:21.087Z,140.63
2023-02-20T07:59:21.097Z,146.25
2023-02-20T08:00:21.112Z,146.25
2023-02-20T08:01:21.194Z,151.88
2023-02-20T08:02:21.145Z,157.50
2023-02-20T08:03:21.160Z,157.50
2023-02-20T08:04:21.157Z,151.88
2023-02-20T08:05:21.229Z,151.88
2023-02-20T08:06:21.177Z,146.25
2023-02-20T08:07:21.205Z,146.25
2023-02-20T08:08:21.213Z,146.25
2023-02-20T08:09:21.210Z,140.63
2023-02-20T08:10:21.230Z,146.25
2023-02-20T08:11:21.238Z,151.88
2023-02-20T08:12:21.244Z,157.50
2023-02-20T08:13:21.265Z,163.13
2023-02-20T08:14:21.265Z,163.13
2023-02-20T08:15:21.281Z,168.75
2023-02-20T08:16:21.383Z,174.38
2023-02-20T08:17:21.298Z,174.38
2023-02-20T08:18:23.851Z,168.75
2023-02-20T08:19:21.329Z,163.13
2023-02-20T08:20:21.342Z,151.88
2023-02-20T08:21:21.351Z,146.25
2023-02-20T08:22:22.653Z,151.88
2023-02-20T08:23:21.366Z,151.88
2023-02-20T08:24:21.381Z,151.88
2023-02-20T08:25:21.392Z,151.88
2023-02-20T08:26:21.412Z,157.50
2023-02-20T08:27:21.417Z,151.88
2023-02-20T08:28:21.425Z,151.88
2023-02-20T08:29:21.445Z,151.88
2023-02-20T08:30:21.490Z,151.88
2023-02-20T08:31:31.742Z,157.50
2023-02-20T08:32:21.574Z,168.75
2023-02-20T08:33:21.485Z,168.75
2023-02-20T08:34:21.496Z,168.75
2023-02-20T08:35:21.511Z,168.75
2023-02-20T08:36:21.519Z,163.13
2023-02-20T08:37:21.530Z,163.13
2023-02-20T08:38:21.574Z,163.13
2023-02-20T08:39:21.551Z,168.75
2023-02-20T08:40:21.564Z,168.75
2023-02-20T08:41:21.579Z,174.38
2023-02-20T08:42:21.585Z,180.00
2023-02-20T08:43:21.603Z,185.63
2023-02-20T08:44:21.609Z,185.63
2023-02-20T08:45:21.623Z,191.25
2023-02-20T08:46:21.636Z,191.25
2023-02-20T08:47:21.651Z,196.88
2023-02-20T08:48:21.659Z,202.50
2023-02-20T08:49:22.956Z,208.13
2023-02-20T08:50:21.683Z,213.75
2023-02-20T08:51:21.694Z,219.38
2023-02-20T08:52:21.705Z,219.38
2023-02-20T08:53:21.736Z,225.00
2023-02-20T08:54:21.726Z,225.00
2023-02-20T08:55:21.737Z,230.63
2023-02-20T08:56:21.774Z,236.25
2023-02-20T08:57:21.780Z,241.88
2023-02-20T08:58:21.781Z,247.50
2023-02-20T08:59:21.788Z,253.13
2023-02-20T09:00:21.845Z,258.75
2023-02-20T09:01:21.875Z,258.75
2023-02-20T09:02:21.881Z,264.38
2023-02-20T09:03:21.844Z,270.00
2023-02-20T09:04:21.844Z,286.88
2023-02-20T09:05:21.860Z,298.13
2023-02-20T09:06:21.871Z,315.00
2023-02-20T09:07:21.883Z,326.25
2023-02-20T09:08:21.900Z,331.88
2023-02-20T09:09:21.911Z,331.88
2023-02-20T09:10:21.919Z,331.88
2023-02-20T09:11:21.931Z,331.88
2023-02-20T09:12:21.953Z,331.88
2023-02-20T09:13:21.958Z,331.88
2023-02-20T09:14:21.970Z,331.88
2023-02-20T09:15:21.987Z,331.88
2023-02-20T09:16:22.057Z,326.25
2023-02-20T09:17:22.010Z,320.63
2023-02-20T09:18:22.019Z,315.00
2023-02-20T09:19:22.090Z,309.38
2023-02-20T09:20:22.050Z,309.38
2023-02-20T09:21:22.059Z,309.38
2023-02-20T09:22:22.074Z,320.63
2023-02-20T09:23:22.085Z,326.25
2023-02-20T09:24:22.104Z,326.25
2023-02-20T09:25:22.111Z,337.50
2023-02-20T09:26:22.126Z,343.13
2023-02-20T09:27:22.140Z,354.38
2023-02-20T09:28:22.154Z,365.63
2023-02-20T09:29:22.163Z,376.88
2023-02-20T09:30:22.215Z,399.38
2023-02-20T09:31:22.251Z,410.63
2023-02-20T09:32:22.287Z,427.50
2023-02-20T09:33:22.213Z,433.13
2023-02-20T09:34:22.225Z,427.50
2023-02-20T09:35:22.251Z,427.50
2023-02-20T09:36:22.253Z,433.13
2023-02-20T09:37:22.267Z,421.88
2023-02-20T09:38:22.278Z,410.63
2023-02-20T09:39:22.291Z,405.00
2023-02-20T09:40:22.304Z,405.00
2023-02-20T09:41:22.320Z,416.25
2023-02-20T09:42:22.331Z,433.13
2023-02-20T09:43:22.348Z,450.00
2023-02-20T09:44:22.361Z,455.63
2023-02-20T09:45:22.372Z,450.00
2023-02-20T09:46:22.422Z,438.75
2023-02-20T09:47:22.405Z,421.88
2023-02-20T09:48:22.413Z,405.00
2023-02-20T09:49:22.426Z,405.00
2023-02-20T09:50:22.437Z,399.38
2023-02-20T09:51:22.454Z,388.13
2023-02-20T09:52:22.470Z,393.75
2023-02-20T09:53:22.487Z,405.00
2023-02-20T09:54:22.497Z,416.25
2023-02-20T09:55:22.509Z,427.50
2023-02-20T09:56:22.523Z,421.88
2023-02-20T09:57:22.535Z,433.13
2023-02-20T09:58:22.548Z,455.63
2023-02-20T09:59:22.565Z,472.50
2023-02-20T10:00:22.624Z,489.38
2023-02-20T10:01:22.634Z,506.25
2023-02-20T10:02:22.761Z,517.50
2023-02-20T10:03:22.746Z,500.63
2023-02-20T10:04:22.657Z,483.75
2023-02-20T10:05:22.645Z,478.13
2023-02-20T10:06:22.661Z,489.38
2023-02-20T10:07:22.674Z,511.88
2023-02-20T10:08:22.704Z,523.13
2023-02-20T10:09:22.720Z,534.38
2023-02-20T10:10:22.714Z,534.38
2023-02-20T10:11:22.733Z,528.75
2023-02-20T10:12:22.744Z,517.50
2023-02-20T10:13:22.758Z,500.63
2023-02-20T10:14:22.779Z,472.50
2023-02-20T10:15:22.792Z,466.88
2023-02-20T10:16:22.826Z,466.88
2023-02-20T10:17:22.816Z,472.50
2023-02-20T10:18:22.829Z,444.38
2023-02-20T10:19:22.853Z,455.63
2023-02-20T10:20:22.860Z,461.25
2023-02-20T10:21:22.876Z,416.25
2023-02-20T10:22:22.971Z,399.38
2023-02-20T10:23:22.939Z,405.00
2023-02-20T10:24:22.919Z,416.25
2023-02-20T10:25:22.934Z,466.88
2023-02-20T10:26:22.982Z,450.00
2023-02-20T10:27:22.959Z,365.63
2023-02-20T10:28:22.978Z,410.63
2023-02-20T10:29:22.994Z,399.38
2023-02-20T10:30:23.076Z,405.00
2023-02-20T10:31:23.073Z,405.00
2023-02-20T10:32:23.040Z,438.75
2023-02-20T10:33:23.053Z,410.63
2023-02-20T10:34:23.064Z,444.38
2023-02-20T10:35:23.083Z,410.63
2023-02-20T10:36:23.105Z,393.75
2023-02-20T10:37:23.114Z,388.13
2023-02-20T10:38:23.136Z,433.13
2023-02-20T10:39:23.171Z,433.13
2023-02-20T10:40:23.154Z,455.63
2023-02-20T10:41:23.170Z,511.88
2023-02-20T10:42:23.182Z,556.88
2023-02-20T10:43:23.196Z,601.88
2023-02-20T10:44:23.214Z,500.63
2023-02-20T10:45:23.233Z,523.13
2023-02-20T10:46:23.336Z,607.50
2023-02-20T10:47:23.255Z,545.63
2023-02-20T10:48:23.272Z,573.75
2023-02-20T10:49:23.287Z,517.50
2023-02-20T10:50:23.300Z,562.50
2023-02-20T10:51:23.314Z,562.50
2023-02-20T10:52:32.797Z,630.00
2023-02-20T10:53:23.346Z,641.25
2023-02-20T10:54:23.360Z,562.50
2023-02-20T10:55:23.375Z,489.38
2023-02-20T10:56:23.398Z,495.00
2023-02-20T10:57:23.402Z,556.88
2023-02-20T10:58:23.418Z,540.00
2023-02-20T10:59:23.435Z,495.00
2023-02-20T11:00:23.449Z,433.13
2023-02-20T11:01:23.532Z,489.38
2023-02-20T11:02:23.481Z,472.50
2023-02-20T11:03:23.498Z,613.13
2023-02-20T11:04:23.526Z,506.25
2023-02-20T11:05:23.699Z,517.50
2023-02-20T11:06:23.757Z,562.50
2023-02-20T11:07:23.852Z,534.38
2023-02-20T11:08:23.579Z,500.63
2023-02-20T11:09:23.596Z,455.63
2023-02-20T11:10:23.600Z,523.13
2023-02-20T11:11:23.623Z,517.50
2023-02-20T11:12:23.632Z,405.00
2023-02-20T11:13:23.665Z,365.63
2023-02-20T11:14:39.278Z,416.25
2023-02-20T11:15:23.691Z,326.25
2023-02-20T11:16:23.828Z,410.63
2023-02-20T11:17:23.807Z,348.75
2023-02-20T11:18:23.887Z,337.50
2023-02-20T11:19:23.781Z,348.75
2023-02-20T11:20:23.824Z,348.75
2023-02-20T11:21:23.776Z,360.00
2023-02-20T11:22:23.790Z,331.88
2023-02-20T11:23:23.838Z,354.38
2023-02-20T11:24:23.827Z,343.13
2023-02-20T11:25:23.836Z,354.38
2023-02-20T11:26:23.859Z,360.00
2023-02-20T11:27:23.874Z,326.25
2023-02-20T11:28:23.912Z,309.38
2023-02-20T11:29:23.901Z,405.00
2023-02-20T11:30:23.942Z,388.13
2023-02-20T11:31:23.999Z,298.13
2023-02-20T11:32:23.947Z,410.63
2023-02-20T11:33:23.972Z,348.75
2023-02-20T11:34:23.984Z,354.38
2023-02-20T11:35:23.999Z,410.63
2023-02-20T11:36:24.009Z,511.88
2023-02-20T11:37:24.028Z,455.63
2023-02-20T11:38:24.042Z,585.00
2023-02-20T11:39:24.058Z,466.88
2023-02-20T11:40:24.071Z,489.38
2023-02-20T11:41:25.793Z,568.13
2023-02-20T11:42:24.107Z,585.00
2023-02-20T11:43:24.119Z,523.13
2023-02-20T11:44:24.138Z,528.75
2023-02-20T11:45:24.150Z,511.88
2023-02-20T11:46:24.260Z,613.13
2023-02-20T11:47:24.181Z,461.25
2023-02-20T11:48:24.197Z,562.50
2023-02-20T11:49:24.211Z,455.63
2023-02-20T11:50:24.229Z,478.13
2023-02-20T11:51:24.294Z,331.88
2023-02-20T11:52:24.279Z,360.00
2023-02-20T11:53:24.291Z,292.50
2023-02-20T11:54:24.318Z,286.88
2023-02-20T11:55:25.745Z,247.50
2023-02-20T11:56:24.330Z,236.25
2023-02-20T11:57:24.336Z,270.00
2023-02-20T11:58:24.347Z,303.75
2023-02-20T11:59:24.367Z,331.88
2023-02-20T12:00:24.388Z,348.75
2023-02-20T12:01:24.396Z,292.50
2023-02-20T12:02:24.459Z,236.25
2023-02-20T12:03:24.445Z,258.75
2023-02-20T12:04:24.511Z,320.63
2023-02-20T12:05:24.547Z,241.88
2023-02-20T12:06:24.472Z,247.50
2023-02-20T12:07:24.485Z,241.88
2023-02-20T12:08:24.502Z,264.38
2023-02-20T12:09:24.525Z,213.75
2023-02-20T12:10:24.532Z,202.50
2023-02-20T12:11:24.561Z,241.88
2023-02-20T12:12:24.569Z,258.75
2023-02-20T12:13:24.578Z,270.00
2023-02-20T12:14:24.593Z,275.63
2023-02-20T12:15:24.607Z,264.38
2023-02-20T12:16:24.665Z,292.50
2023-02-20T12:17:25.071Z,371.25
2023-02-20T12:18:24.652Z,371.25
2023-02-20T12:19:24.668Z,393.75
2023-02-20T12:20:24.682Z,438.75
2023-02-20T12:21:24.705Z,444.38
2023-02-20T12:22:24.714Z,410.63
2023-02-20T12:23:24.734Z,315.00
2023-02-20T12:24:24.744Z,382.50
2023-02-20T12:25:24.764Z,416.25
2023-02-20T12:26:24.774Z,382.50
2023-02-20T12:27:24.791Z,360.00
2023-02-20T12:28:24.814Z,298.13
2023-02-20T12:29:24.822Z,298.13
2023-02-20T12:30:24.855Z,241.88
2023-02-20T12:31:24.930Z,208.13
2023-02-20T12:32:24.888Z,191.25
2023-02-20T12:33:24.891Z,196.88
2023-02-20T12:34:24.899Z,208.13
2023-02-20T12:35:24.913Z,174.38
2023-02-20T12:36:24.928Z,106.88
2023-02-20T12:37:24.958Z,112.50
2023-02-20T12:38:24.970Z,123.75
2023-02-20T12:39:24.978Z,112.50
2023-02-20T12:40:25.003Z,123.75
2023-02-20T12:41:25.011Z,135.00
2023-02-20T12:42:25.040Z,163.13
2023-02-20T12:43:25.035Z,146.25
2023-02-20T12:44:25.061Z,146.25
2023-02-20T12:45:25.068Z,140.63
2023-02-20T12:46:25.146Z,157.50
2023-02-20T12:47:25.116Z,180.00
2023-02-20T12:48:25.112Z,151.88
2023-02-20T12:49:25.134Z,146.25
2023-02-20T12:50:25.180Z,123.75
2023-02-20T12:51:25.158Z,135.00
2023-02-20T12:52:25.172Z,135.00
2023-02-20T12:53:25.225Z,135.00